sensor_id;sensor_type;location;lat;lon;timestamp;P1;durP1;ratioP1;P2;durP2;ratioP2
3217;SDS011;1621;49.702;8.618;2022-10-16T00:02:12;4.50;;;2.70;;
3217;SDS011;1621;49.702;8.618;2022-10-16T00:04:40;4.30;;;2.40;;
3217;SDS011;1621;49.702;8.618;2022-10-16T00:07:06;3.33;;;2.00;;
3217;SDS011;1621;49.702;8.618;2022-10-16T00:09:32;3.80;;;1.63;;
3217;SDS011;1621;49.702;8.618;2022-10-16T00:11:58;3.10;;;1.90;;
3217;SDS011;1621;49.702;8.618;2022-10-16T00:14:25;2.67;;;1.40;;
3217;SDS011;1621;49.702;8.618;2022-10-16T00:16:51;2.90;;;1.60;;
3217;SDS011;1621;49.702;8.618;2022-10-16T00:19:17;3.60;;;1.60;;
3217;SDS011;1621;49.702;8.618;2022-10-16T00:21:45;4.00;;;1.30;;
3217;SDS011;1621;49.702;8.618;2022-10-16T00:24:11;2.50;;;1.10;;
3217;SDS011;1621;49.702;8.618;2022-10-16T00:26:38;3.70;;;1.60;;
3217;SDS011;1621;49.702;8.618;2022-10-16T00:29:05;2.63;;;1.20;;
3217;SDS011;1621;49.702;8.618;2022-10-16T00:31:31;3.57;;;1.43;;
3217;SDS011;1621;49.702;8.618;2022-10-16T00:33:58;3.20;;;1.40;;
3217;SDS011;1621;49.702;8.618;2022-10-16T00:36:25;6.00;;;1.77;;
3217;SDS011;1621;49.702;8.618;2022-10-16T00:38:54;2.70;;;1.53;;
3217;SDS011;1621;49.702;8.618;2022-10-16T00:41:20;2.90;;;1.20;;
3217;SDS011;1621;49.702;8.618;2022-10-16T00:43:48;2.30;;;1.10;;
3217;SDS011;1621;49.702;8.618;2022-10-16T00:46:15;2.50;;;1.20;;
3217;SDS011;1621;49.702;8.618;2022-10-16T00:48:43;3.23;;;1.20;;
3217;SDS011;1621;49.702;8.618;2022-10-16T00:51:11;3.37;;;1.60;;
3217;SDS011;1621;49.702;8.618;2022-10-16T00:53:37;2.60;;;1.40;;
3217;SDS011;1621;49.702;8.618;2022-10-16T00:56:05;3.33;;;1.33;;
3217;SDS011;1621;49.702;8.618;2022-10-16T00:58:32;3.77;;;1.40;;
3217;SDS011;1621;49.702;8.618;2022-10-16T01:00:58;3.07;;;1.27;;
3217;SDS011;1621;49.702;8.618;2022-10-16T01:03:26;2.83;;;1.47;;
3217;SDS011;1621;49.702;8.618;2022-10-16T01:05:58;4.43;;;1.53;;
3217;SDS011;1621;49.702;8.618;2022-10-16T01:08:27;4.30;;;1.97;;
3217;SDS011;1621;49.702;8.618;2022-10-16T01:10:57;3.20;;;1.90;;
3217;SDS011;1621;49.702;8.618;2022-10-16T01:13:29;3.67;;;2.03;;
3217;SDS011;1621;49.702;8.618;2022-10-16T01:16:00;3.83;;;2.10;;
3217;SDS011;1621;49.702;8.618;2022-10-16T01:18:29;5.87;;;2.77;;
3217;SDS011;1621;49.702;8.618;2022-10-16T01:20:59;7.07;;;2.90;;
3217;SDS011;1621;49.702;8.618;2022-10-16T01:23:34;8.23;;;3.03;;
3217;SDS011;1621;49.702;8.618;2022-10-16T01:26:14;5.60;;;3.10;;
3217;SDS011;1621;49.702;8.618;2022-10-16T01:28:44;4.27;;;3.40;;
3217;SDS011;1621;49.702;8.618;2022-10-16T01:31:14;4.40;;;3.30;;
3217;SDS011;1621;49.702;8.618;2022-10-16T01:33:42;6.53;;;3.67;;
3217;SDS011;1621;49.702;8.618;2022-10-16T01:36:10;5.80;;;3.53;;
3217;SDS011;1621;49.702;8.618;2022-10-16T01:38:37;5.87;;;3.70;;
3217;SDS011;1621;49.702;8.618;2022-10-16T01:41:06;16.63;;;5.03;;
3217;SDS011;1621;49.702;8.618;2022-10-16T01:43:35;8.57;;;4.13;;
3217;SDS011;1621;49.702;8.618;2022-10-16T01:46:05;7.50;;;4.70;;
3217;SDS011;1621;49.702;8.618;2022-10-16T01:48:33;9.23;;;5.00;;
3217;SDS011;1621;49.702;8.618;2022-10-16T01:51:02;9.40;;;4.67;;
3217;SDS011;1621;49.702;8.618;2022-10-16T01:53:29;6.83;;;4.37;;
3217;SDS011;1621;49.702;8.618;2022-10-16T01:55:56;9.03;;;4.03;;
3217;SDS011;1621;49.702;8.618;2022-10-16T01:58:24;7.00;;;4.20;;
3217;SDS011;1621;49.702;8.618;2022-10-16T02:00:51;8.83;;;4.00;;
3217;SDS011;1621;49.702;8.618;2022-10-16T02:03:19;11.20;;;4.10;;
3217;SDS011;1621;49.702;8.618;2022-10-16T02:05:46;8.33;;;4.27;;
3217;SDS011;1621;49.702;8.618;2022-10-16T02:08:13;6.73;;;4.00;;
3217;SDS011;1621;49.702;8.618;2022-10-16T02:10:39;6.70;;;4.07;;
3217;SDS011;1621;49.702;8.618;2022-10-16T02:13:06;6.80;;;4.23;;
3217;SDS011;1621;49.702;8.618;2022-10-16T02:15:34;7.53;;;3.90;;
3217;SDS011;1621;49.702;8.618;2022-10-16T02:18:01;8.40;;;4.30;;
3217;SDS011;1621;49.702;8.618;2022-10-16T02:20:29;6.23;;;3.90;;
3217;SDS011;1621;49.702;8.618;2022-10-16T02:22:58;8.37;;;4.50;;
3217;SDS011;1621;49.702;8.618;2022-10-16T02:25:28;7.07;;;4.00;;
3217;SDS011;1621;49.702;8.618;2022-10-16T02:27:57;9.03;;;4.77;;
3217;SDS011;1621;49.702;8.618;2022-10-16T02:30:27;5.57;;;3.73;;
3217;SDS011;1621;49.702;8.618;2022-10-16T02:32:55;7.07;;;4.07;;
3217;SDS011;1621;49.702;8.618;2022-10-16T02:35:22;6.37;;;4.20;;
3217;SDS011;1621;49.702;8.618;2022-10-16T02:37:50;6.97;;;4.07;;
3217;SDS011;1621;49.702;8.618;2022-10-16T02:40:17;6.23;;;4.07;;
3217;SDS011;1621;49.702;8.618;2022-10-16T02:42:44;5.07;;;3.37;;
3217;SDS011;1621;49.702;8.618;2022-10-16T02:45:11;10.43;;;3.70;;
3217;SDS011;1621;49.702;8.618;2022-10-16T02:47:37;5.57;;;3.57;;
3217;SDS011;1621;49.702;8.618;2022-10-16T02:50:04;8.53;;;4.10;;
3217;SDS011;1621;49.702;8.618;2022-10-16T02:52:30;5.47;;;3.50;;
3217;SDS011;1621;49.702;8.618;2022-10-16T02:54:58;5.13;;;3.50;;
3217;SDS011;1621;49.702;8.618;2022-10-16T02:57:24;4.60;;;3.10;;
3217;SDS011;1621;49.702;8.618;2022-10-16T02:59:50;9.00;;;3.90;;
3217;SDS011;1621;49.702;8.618;2022-10-16T03:02:17;6.90;;;3.03;;
3217;SDS011;1621;49.702;8.618;2022-10-16T03:04:43;5.00;;;2.83;;
3217;SDS011;1621;49.702;8.618;2022-10-16T03:07:09;6.80;;;3.43;;
3217;SDS011;1621;49.702;8.618;2022-10-16T03:09:36;4.90;;;2.83;;
3217;SDS011;1621;49.702;8.618;2022-10-16T03:12:03;9.33;;;3.40;;
3217;SDS011;1621;49.702;8.618;2022-10-16T03:14:30;4.67;;;2.80;;
3217;SDS011;1621;49.702;8.618;2022-10-16T03:16:56;4.40;;;2.80;;
3217;SDS011;1621;49.702;8.618;2022-10-16T03:19:22;5.70;;;2.60;;
3217;SDS011;1621;49.702;8.618;2022-10-16T03:21:49;6.73;;;2.80;;
3217;SDS011;1621;49.702;8.618;2022-10-16T03:24:15;5.10;;;2.90;;
3217;SDS011;1621;49.702;8.618;2022-10-16T03:26:42;5.43;;;2.77;;
3217;SDS011;1621;49.702;8.618;2022-10-16T03:29:09;4.43;;;2.63;;
3217;SDS011;1621;49.702;8.618;2022-10-16T03:31:35;6.53;;;3.07;;
3217;SDS011;1621;49.702;8.618;2022-10-16T03:34:02;4.10;;;2.70;;
3217;SDS011;1621;49.702;8.618;2022-10-16T03:36:28;6.23;;;2.70;;
3217;SDS011;1621;49.702;8.618;2022-10-16T03:38:54;4.73;;;2.40;;
3217;SDS011;1621;49.702;8.618;2022-10-16T03:41:21;7.20;;;2.90;;
3217;SDS011;1621;49.702;8.618;2022-10-16T03:43:47;5.40;;;2.90;;
3217;SDS011;1621;49.702;8.618;2022-10-16T03:46:15;5.97;;;2.73;;
3217;SDS011;1621;49.702;8.618;2022-10-16T03:48:41;4.73;;;2.77;;
3217;SDS011;1621;49.702;8.618;2022-10-16T03:51:07;4.00;;;2.97;;
3217;SDS011;1621;49.702;8.618;2022-10-16T03:53:34;4.67;;;2.97;;
3217;SDS011;1621;49.702;8.618;2022-10-16T03:56:00;5.43;;;3.03;;
3217;SDS011;1621;49.702;8.618;2022-10-16T03:58:26;4.53;;;2.60;;
3217;SDS011;1621;49.702;8.618;2022-10-16T04:00:52;8.73;;;2.80;;
3217;SDS011;1621;49.702;8.618;2022-10-16T04:03:20;5.27;;;2.80;;
3217;SDS011;1621;49.702;8.618;2022-10-16T04:05:48;3.93;;;2.53;;
3217;SDS011;1621;49.702;8.618;2022-10-16T04:08:14;4.70;;;2.77;;
3217;SDS011;1621;49.702;8.618;2022-10-16T04:10:42;7.43;;;3.63;;
3217;SDS011;1621;49.702;8.618;2022-10-16T04:13:08;5.90;;;2.73;;
3217;SDS011;1621;49.702;8.618;2022-10-16T04:15:34;5.43;;;3.00;;
3217;SDS011;1621;49.702;8.618;2022-10-16T04:18:01;4.90;;;3.07;;
3217;SDS011;1621;49.702;8.618;2022-10-16T04:20:28;4.73;;;2.73;;
3217;SDS011;1621;49.702;8.618;2022-10-16T04:22:55;4.00;;;2.83;;
3217;SDS011;1621;49.702;8.618;2022-10-16T04:25:21;5.47;;;2.80;;
3217;SDS011;1621;49.702;8.618;2022-10-16T04:27:47;5.67;;;3.30;;
3217;SDS011;1621;49.702;8.618;2022-10-16T04:30:14;5.00;;;3.23;;
3217;SDS011;1621;49.702;8.618;2022-10-16T04:32:40;4.63;;;2.87;;
3217;SDS011;1621;49.702;8.618;2022-10-16T04:35:07;4.50;;;3.07;;
3217;SDS011;1621;49.702;8.618;2022-10-16T04:37:35;4.63;;;2.90;;
3217;SDS011;1621;49.702;8.618;2022-10-16T04:40:01;4.60;;;2.77;;
3217;SDS011;1621;49.702;8.618;2022-10-16T04:42:27;6.70;;;2.90;;
3217;SDS011;1621;49.702;8.618;2022-10-16T04:44:54;6.10;;;3.30;;
3217;SDS011;1621;49.702;8.618;2022-10-16T04:47:20;6.63;;;3.03;;
3217;SDS011;1621;49.702;8.618;2022-10-16T04:49:46;4.50;;;2.97;;
3217;SDS011;1621;49.702;8.618;2022-10-16T04:52:12;5.13;;;3.10;;
3217;SDS011;1621;49.702;8.618;2022-10-16T04:54:40;11.07;;;3.87;;
3217;SDS011;1621;49.702;8.618;2022-10-16T04:57:06;7.70;;;3.07;;
3217;SDS011;1621;49.702;8.618;2022-10-16T04:59:33;4.80;;;2.73;;
3217;SDS011;1621;49.702;8.618;2022-10-16T05:01:59;4.90;;;3.00;;
3217;SDS011;1621;49.702;8.618;2022-10-16T05:04:25;4.27;;;2.90;;
3217;SDS011;1621;49.702;8.618;2022-10-16T05:06:52;4.97;;;2.93;;
3217;SDS011;1621;49.702;8.618;2022-10-16T05:09:18;11.50;;;3.00;;
3217;SDS011;1621;49.702;8.618;2022-10-16T05:11:46;4.43;;;2.90;;
3217;SDS011;1621;49.702;8.618;2022-10-16T05:14:12;4.90;;;2.30;;
3217;SDS011;1621;49.702;8.618;2022-10-16T05:16:38;4.70;;;2.33;;
3217;SDS011;1621;49.702;8.618;2022-10-16T05:19:04;3.50;;;2.50;;
3217;SDS011;1621;49.702;8.618;2022-10-16T05:21:31;4.43;;;2.63;;
3217;SDS011;1621;49.702;8.618;2022-10-16T05:23:57;5.07;;;3.00;;
3217;SDS011;1621;49.702;8.618;2022-10-16T05:26:23;7.50;;;2.83;;
3217;SDS011;1621;49.702;8.618;2022-10-16T05:28:51;4.30;;;2.67;;
3217;SDS011;1621;49.702;8.618;2022-10-16T05:31:17;6.13;;;2.30;;
3217;SDS011;1621;49.702;8.618;2022-10-16T05:33:44;5.30;;;2.77;;
3217;SDS011;1621;49.702;8.618;2022-10-16T05:36:10;8.83;;;2.50;;
3217;SDS011;1621;49.702;8.618;2022-10-16T05:38:36;4.83;;;2.77;;
3217;SDS011;1621;49.702;8.618;2022-10-16T05:41:04;7.00;;;2.73;;
3217;SDS011;1621;49.702;8.618;2022-10-16T05:43:30;5.73;;;2.73;;
3217;SDS011;1621;49.702;8.618;2022-10-16T05:46:00;6.90;;;2.43;;
3217;SDS011;1621;49.702;8.618;2022-10-16T05:48:26;5.30;;;2.83;;
3217;SDS011;1621;49.702;8.618;2022-10-16T05:50:56;6.83;;;2.90;;
3217;SDS011;1621;49.702;8.618;2022-10-16T05:53:23;6.80;;;2.73;;
3217;SDS011;1621;49.702;8.618;2022-10-16T05:55:51;6.53;;;2.50;;
3217;SDS011;1621;49.702;8.618;2022-10-16T05:58:17;4.20;;;2.57;;
3217;SDS011;1621;49.702;8.618;2022-10-16T06:00:44;4.93;;;2.60;;
3217;SDS011;1621;49.702;8.618;2022-10-16T06:03:11;5.33;;;3.20;;
3217;SDS011;1621;49.702;8.618;2022-10-16T06:05:38;6.40;;;2.90;;
3217;SDS011;1621;49.702;8.618;2022-10-16T06:08:04;4.23;;;2.73;;
3217;SDS011;1621;49.702;8.618;2022-10-16T06:10:31;5.83;;;3.03;;
3217;SDS011;1621;49.702;8.618;2022-10-16T06:12:57;3.63;;;2.33;;
3217;SDS011;1621;49.702;8.618;2022-10-16T06:15:23;6.13;;;2.80;;
3217;SDS011;1621;49.702;8.618;2022-10-16T06:17:50;5.97;;;3.10;;
3217;SDS011;1621;49.702;8.618;2022-10-16T06:20:17;5.70;;;2.70;;
3217;SDS011;1621;49.702;8.618;2022-10-16T06:22:44;4.83;;;2.57;;
3217;SDS011;1621;49.702;8.618;2022-10-16T06:25:10;5.50;;;3.23;;
3217;SDS011;1621;49.702;8.618;2022-10-16T06:27:38;3.87;;;2.40;;
3217;SDS011;1621;49.702;8.618;2022-10-16T06:30:05;4.37;;;2.60;;
3217;SDS011;1621;49.702;8.618;2022-10-16T06:32:32;4.47;;;2.80;;
3217;SDS011;1621;49.702;8.618;2022-10-16T06:34:58;4.30;;;2.70;;
3217;SDS011;1621;49.702;8.618;2022-10-16T06:37:26;5.00;;;3.27;;
3217;SDS011;1621;49.702;8.618;2022-10-16T06:39:52;7.37;;;3.60;;
3217;SDS011;1621;49.702;8.618;2022-10-16T06:42:19;5.97;;;3.63;;
3217;SDS011;1621;49.702;8.618;2022-10-16T06:44:45;4.80;;;3.53;;
3217;SDS011;1621;49.702;8.618;2022-10-16T06:47:11;5.57;;;3.63;;
3217;SDS011;1621;49.702;8.618;2022-10-16T06:49:37;7.43;;;3.17;;
3217;SDS011;1621;49.702;8.618;2022-10-16T06:52:04;5.70;;;3.70;;
3217;SDS011;1621;49.702;8.618;2022-10-16T06:54:32;7.10;;;3.40;;
3217;SDS011;1621;49.702;8.618;2022-10-16T06:56:58;6.10;;;3.67;;
3217;SDS011;1621;49.702;8.618;2022-10-16T06:59:25;4.70;;;3.40;;
3217;SDS011;1621;49.702;8.618;2022-10-16T07:01:51;5.47;;;3.40;;
3217;SDS011;1621;49.702;8.618;2022-10-16T07:04:17;4.63;;;3.03;;
3217;SDS011;1621;49.702;8.618;2022-10-16T07:06:44;5.00;;;3.40;;
3217;SDS011;1621;49.702;8.618;2022-10-16T07:09:11;5.50;;;2.87;;
3217;SDS011;1621;49.702;8.618;2022-10-16T07:11:39;4.83;;;2.87;;
3217;SDS011;1621;49.702;8.618;2022-10-16T07:14:09;5.73;;;2.70;;
3217;SDS011;1621;49.702;8.618;2022-10-16T07:16:38;9.80;;;2.97;;
3217;SDS011;1621;49.702;8.618;2022-10-16T07:19:04;11.20;;;3.30;;
3217;SDS011;1621;49.702;8.618;2022-10-16T07:21:32;8.50;;;2.80;;
3217;SDS011;1621;49.702;8.618;2022-10-16T07:24:00;4.67;;;2.73;;
3217;SDS011;1621;49.702;8.618;2022-10-16T07:26:27;5.90;;;3.13;;
3217;SDS011;1621;49.702;8.618;2022-10-16T07:28:56;3.50;;;2.40;;
3217;SDS011;1621;49.702;8.618;2022-10-16T07:31:22;6.40;;;2.87;;
3217;SDS011;1621;49.702;8.618;2022-10-16T07:33:50;6.43;;;2.40;;
3217;SDS011;1621;49.702;8.618;2022-10-16T07:36:17;6.67;;;2.83;;
3217;SDS011;1621;49.702;8.618;2022-10-16T07:38:43;4.63;;;2.67;;
3217;SDS011;1621;49.702;8.618;2022-10-16T07:41:11;4.53;;;2.33;;
3217;SDS011;1621;49.702;8.618;2022-10-16T07:43:38;5.67;;;2.70;;
3217;SDS011;1621;49.702;8.618;2022-10-16T07:46:06;6.00;;;3.00;;
3217;SDS011;1621;49.702;8.618;2022-10-16T07:48:33;5.50;;;2.60;;
3217;SDS011;1621;49.702;8.618;2022-10-16T07:50:59;4.63;;;2.70;;
3217;SDS011;1621;49.702;8.618;2022-10-16T07:53:26;3.70;;;2.37;;
3217;SDS011;1621;49.702;8.618;2022-10-16T07:55:56;5.33;;;2.40;;
3217;SDS011;1621;49.702;8.618;2022-10-16T07:58:23;4.27;;;2.47;;
3217;SDS011;1621;49.702;8.618;2022-10-16T08:00:49;8.73;;;2.77;;
3217;SDS011;1621;49.702;8.618;2022-10-16T08:03:17;5.80;;;2.90;;
3217;SDS011;1621;49.702;8.618;2022-10-16T08:05:43;4.33;;;2.53;;
3217;SDS011;1621;49.702;8.618;2022-10-16T08:08:11;6.30;;;2.70;;
3217;SDS011;1621;49.702;8.618;2022-10-16T08:10:38;4.40;;;2.77;;
3217;SDS011;1621;49.702;8.618;2022-10-16T08:13:05;5.93;;;2.80;;
3217;SDS011;1621;49.702;8.618;2022-10-16T08:15:31;6.10;;;2.37;;
3217;SDS011;1621;49.702;8.618;2022-10-16T08:17:57;7.83;;;3.03;;
3217;SDS011;1621;49.702;8.618;2022-10-16T08:20:26;6.93;;;2.60;;
3217;SDS011;1621;49.702;8.618;2022-10-16T08:22:52;4.33;;;2.60;;
3217;SDS011;1621;49.702;8.618;2022-10-16T08:25:20;10.43;;;2.77;;
3217;SDS011;1621;49.702;8.618;2022-10-16T08:27:46;7.83;;;2.80;;
3217;SDS011;1621;49.702;8.618;2022-10-16T08:30:13;5.83;;;3.07;;
3217;SDS011;1621;49.702;8.618;2022-10-16T08:32:39;5.93;;;2.50;;
3217;SDS011;1621;49.702;8.618;2022-10-16T08:35:07;10.77;;;4.30;;
3217;SDS011;1621;49.702;8.618;2022-10-16T08:37:35;5.17;;;3.30;;
3217;SDS011;1621;49.702;8.618;2022-10-16T08:40:02;8.57;;;2.93;;
3217;SDS011;1621;49.702;8.618;2022-10-16T08:42:31;5.27;;;2.73;;
3217;SDS011;1621;49.702;8.618;2022-10-16T08:45:21;7.17;;;3.40;;
3217;SDS011;1621;49.702;8.618;2022-10-16T08:47:54;6.80;;;4.10;;
3217;SDS011;1621;49.702;8.618;2022-10-16T08:50:25;6.80;;;3.57;;
3217;SDS011;1621;49.702;8.618;2022-10-16T08:52:54;9.17;;;4.07;;
3217;SDS011;1621;49.702;8.618;2022-10-16T08:55:31;15.63;;;4.67;;
3217;SDS011;1621;49.702;8.618;2022-10-16T08:57:59;7.73;;;4.10;;
3217;SDS011;1621;49.702;8.618;2022-10-16T09:00:26;11.97;;;7.80;;
3217;SDS011;1621;49.702;8.618;2022-10-16T09:02:53;12.03;;;7.90;;
3217;SDS011;1621;49.702;8.618;2022-10-16T09:05:23;9.17;;;5.60;;
3217;SDS011;1621;49.702;8.618;2022-10-16T09:07:54;9.90;;;5.73;;
3217;SDS011;1621;49.702;8.618;2022-10-16T09:10:26;7.30;;;4.67;;
3217;SDS011;1621;49.702;8.618;2022-10-16T09:12:57;6.10;;;4.03;;
3217;SDS011;1621;49.702;8.618;2022-10-16T09:15:28;7.23;;;4.33;;
3217;SDS011;1621;49.702;8.618;2022-10-16T09:17:59;5.30;;;3.87;;
3217;SDS011;1621;49.702;8.618;2022-10-16T09:20:29;7.07;;;3.63;;
3217;SDS011;1621;49.702;8.618;2022-10-16T09:23:07;9.67;;;3.60;;
3217;SDS011;1621;49.702;8.618;2022-10-16T09:25:34;5.57;;;3.57;;
3217;SDS011;1621;49.702;8.618;2022-10-16T09:28:01;6.77;;;3.30;;
3217;SDS011;1621;49.702;8.618;2022-10-16T09:30:27;6.37;;;3.23;;
3217;SDS011;1621;49.702;8.618;2022-10-16T09:32:54;4.17;;;3.00;;
3217;SDS011;1621;49.702;8.618;2022-10-16T09:35:25;7.70;;;3.63;;
3217;SDS011;1621;49.702;8.618;2022-10-16T09:37:53;8.63;;;3.30;;
3217;SDS011;1621;49.702;8.618;2022-10-16T09:40:25;7.70;;;3.90;;
3217;SDS011;1621;49.702;8.618;2022-10-16T09:42:52;6.97;;;3.30;;
3217;SDS011;1621;49.702;8.618;2022-10-16T09:45:21;8.87;;;3.80;;
3217;SDS011;1621;49.702;8.618;2022-10-16T09:47:48;5.97;;;3.50;;
3217;SDS011;1621;49.702;8.618;2022-10-16T09:50:20;8.83;;;3.60;;
3217;SDS011;1621;49.702;8.618;2022-10-16T09:52:47;4.20;;;2.70;;
3217;SDS011;1621;49.702;8.618;2022-10-16T09:55:15;4.07;;;2.73;;
3217;SDS011;1621;49.702;8.618;2022-10-16T09:57:49;5.23;;;2.77;;
3217;SDS011;1621;49.702;8.618;2022-10-16T10:00:16;6.10;;;2.83;;
3217;SDS011;1621;49.702;8.618;2022-10-16T10:02:42;3.30;;;2.13;;
3217;SDS011;1621;49.702;8.618;2022-10-16T10:05:17;3.50;;;1.70;;
3217;SDS011;1621;49.702;8.618;2022-10-16T10:07:44;4.03;;;2.13;;
3217;SDS011;1621;49.702;8.618;2022-10-16T10:10:18;5.00;;;2.20;;
3217;SDS011;1621;49.702;8.618;2022-10-16T10:12:45;4.70;;;1.93;;
3217;SDS011;1621;49.702;8.618;2022-10-16T10:15:13;8.43;;;2.10;;
3217;SDS011;1621;49.702;8.618;2022-10-16T10:17:45;4.60;;;2.10;;
3217;SDS011;1621;49.702;8.618;2022-10-16T10:20:15;2.87;;;1.57;;
3217;SDS011;1621;49.702;8.618;2022-10-16T10:22:43;5.33;;;1.80;;
3217;SDS011;1621;49.702;8.618;2022-10-16T10:25:14;6.00;;;1.90;;
3217;SDS011;1621;49.702;8.618;2022-10-16T10:27:44;3.10;;;1.50;;
3217;SDS011;1621;49.702;8.618;2022-10-16T10:30:17;5.60;;;2.20;;
3217;SDS011;1621;49.702;8.618;2022-10-16T10:32:47;3.63;;;1.70;;
3217;SDS011;1621;49.702;8.618;2022-10-16T10:35:15;5.90;;;2.00;;
3217;SDS011;1621;49.702;8.618;2022-10-16T10:37:49;4.10;;;1.70;;
3217;SDS011;1621;49.702;8.618;2022-10-16T10:40:22;4.90;;;2.00;;
3217;SDS011;1621;49.702;8.618;2022-10-16T10:42:50;3.20;;;1.40;;
3217;SDS011;1621;49.702;8.618;2022-10-16T10:45:24;3.13;;;1.50;;
3217;SDS011;1621;49.702;8.618;2022-10-16T10:48:05;4.00;;;1.80;;
3217;SDS011;1621;49.702;8.618;2022-10-16T10:50:34;3.33;;;1.67;;
3217;SDS011;1621;49.702;8.618;2022-10-16T10:53:05;3.50;;;1.73;;
3217;SDS011;1621;49.702;8.618;2022-10-16T10:55:36;4.80;;;1.90;;
3217;SDS011;1621;49.702;8.618;2022-10-16T10:58:10;5.80;;;1.87;;
3217;SDS011;1621;49.702;8.618;2022-10-16T11:00:44;8.90;;;1.90;;
3217;SDS011;1621;49.702;8.618;2022-10-16T11:03:13;6.30;;;1.90;;
3217;SDS011;1621;49.702;8.618;2022-10-16T11:05:47;5.60;;;2.07;;
3217;SDS011;1621;49.702;8.618;2022-10-16T11:08:17;5.13;;;1.80;;
3217;SDS011;1621;49.702;8.618;2022-10-16T11:10:48;3.80;;;1.90;;
3217;SDS011;1621;49.702;8.618;2022-10-16T11:13:18;4.93;;;1.73;;
3217;SDS011;1621;49.702;8.618;2022-10-16T11:15:47;5.20;;;1.80;;
3217;SDS011;1621;49.702;8.618;2022-10-16T11:18:15;3.40;;;1.70;;
3217;SDS011;1621;49.702;8.618;2022-10-16T11:20:44;5.30;;;2.20;;
3217;SDS011;1621;49.702;8.618;2022-10-16T11:23:14;7.10;;;2.10;;
3217;SDS011;1621;49.702;8.618;2022-10-16T11:25:41;6.20;;;1.83;;
3217;SDS011;1621;49.702;8.618;2022-10-16T11:28:09;4.63;;;1.80;;
3217;SDS011;1621;49.702;8.618;2022-10-16T11:30:39;5.40;;;2.50;;
3217;SDS011;1621;49.702;8.618;2022-10-16T11:33:14;5.30;;;2.43;;
3217;SDS011;1621;49.702;8.618;2022-10-16T11:35:47;5.73;;;2.10;;
3217;SDS011;1621;49.702;8.618;2022-10-16T11:38:15;4.00;;;2.10;;
3217;SDS011;1621;49.702;8.618;2022-10-16T11:40:44;3.40;;;1.93;;
3217;SDS011;1621;49.702;8.618;2022-10-16T11:43:13;4.33;;;1.80;;
3217;SDS011;1621;49.702;8.618;2022-10-16T11:45:42;4.13;;;1.80;;
3217;SDS011;1621;49.702;8.618;2022-10-16T11:48:12;4.27;;;2.43;;
3217;SDS011;1621;49.702;8.618;2022-10-16T11:50:42;6.00;;;2.07;;
3217;SDS011;1621;49.702;8.618;2022-10-16T11:53:13;9.67;;;2.17;;
3217;SDS011;1621;49.702;8.618;2022-10-16T11:55:42;8.83;;;2.00;;
3217;SDS011;1621;49.702;8.618;2022-10-16T11:58:09;8.87;;;2.27;;
3217;SDS011;1621;49.702;8.618;2022-10-16T12:00:40;5.00;;;1.70;;
3217;SDS011;1621;49.702;8.618;2022-10-16T12:03:14;5.23;;;1.93;;
3217;SDS011;1621;49.702;8.618;2022-10-16T12:05:49;4.77;;;2.37;;
3217;SDS011;1621;49.702;8.618;2022-10-16T12:08:18;5.17;;;2.13;;
3217;SDS011;1621;49.702;8.618;2022-10-16T12:10:45;4.30;;;2.10;;
3217;SDS011;1621;49.702;8.618;2022-10-16T12:13:28;5.50;;;2.40;;
3217;SDS011;1621;49.702;8.618;2022-10-16T12:16:03;4.70;;;2.63;;
3217;SDS011;1621;49.702;8.618;2022-10-16T12:18:31;3.77;;;2.23;;
3217;SDS011;1621;49.702;8.618;2022-10-16T12:20:58;6.50;;;2.20;;
3217;SDS011;1621;49.702;8.618;2022-10-16T12:23:30;7.93;;;2.53;;
3217;SDS011;1621;49.702;8.618;2022-10-16T12:25:57;5.83;;;2.63;;
3217;SDS011;1621;49.702;8.618;2022-10-16T12:28:26;5.20;;;2.60;;
3217;SDS011;1621;49.702;8.618;2022-10-16T12:30:53;4.40;;;2.00;;
3217;SDS011;1621;49.702;8.618;2022-10-16T12:33:20;7.33;;;3.10;;
3217;SDS011;1621;49.702;8.618;2022-10-16T12:35:48;6.13;;;2.43;;
3217;SDS011;1621;49.702;8.618;2022-10-16T12:38:16;4.30;;;2.20;;
3217;SDS011;1621;49.702;8.618;2022-10-16T12:40:43;7.47;;;2.30;;
3217;SDS011;1621;49.702;8.618;2022-10-16T12:43:11;6.83;;;2.70;;
3217;SDS011;1621;49.702;8.618;2022-10-16T12:45:37;5.47;;;2.30;;
3217;SDS011;1621;49.702;8.618;2022-10-16T12:48:04;9.50;;;2.33;;
3217;SDS011;1621;49.702;8.618;2022-10-16T12:50:44;5.70;;;2.00;;
3217;SDS011;1621;49.702;8.618;2022-10-16T12:53:19;4.90;;;2.17;;
3217;SDS011;1621;49.702;8.618;2022-10-16T12:55:49;5.80;;;2.40;;
3217;SDS011;1621;49.702;8.618;2022-10-16T12:58:27;3.50;;;2.07;;
3217;SDS011;1621;49.702;8.618;2022-10-16T13:00:57;5.03;;;2.80;;
3217;SDS011;1621;49.702;8.618;2022-10-16T13:03:42;4.43;;;2.30;;
3217;SDS011;1621;49.702;8.618;2022-10-16T13:06:14;3.80;;;2.20;;
3217;SDS011;1621;49.702;8.618;2022-10-16T13:08:46;5.00;;;2.00;;
3217;SDS011;1621;49.702;8.618;2022-10-16T13:11:18;5.07;;;2.30;;
3217;SDS011;1621;49.702;8.618;2022-10-16T13:13:53;4.27;;;2.47;;
3217;SDS011;1621;49.702;8.618;2022-10-16T13:16:23;4.27;;;2.43;;
3217;SDS011;1621;49.702;8.618;2022-10-16T13:18:58;10.80;;;2.60;;
3217;SDS011;1621;49.702;8.618;2022-10-16T13:21:33;5.30;;;2.70;;
3217;SDS011;1621;49.702;8.618;2022-10-16T13:24:06;5.40;;;2.30;;
3217;SDS011;1621;49.702;8.618;2022-10-16T13:26:39;4.40;;;2.43;;
3217;SDS011;1621;49.702;8.618;2022-10-16T13:29:07;6.37;;;3.10;;
3217;SDS011;1621;49.702;8.618;2022-10-16T13:31:36;5.97;;;2.40;;
3217;SDS011;1621;49.702;8.618;2022-10-16T13:34:03;5.33;;;2.43;;
3217;SDS011;1621;49.702;8.618;2022-10-16T13:36:35;4.83;;;2.67;;
3217;SDS011;1621;49.702;8.618;2022-10-16T13:39:10;4.63;;;2.13;;
3217;SDS011;1621;49.702;8.618;2022-10-16T13:41:37;4.80;;;2.50;;
3217;SDS011;1621;49.702;8.618;2022-10-16T13:44:03;8.47;;;2.70;;
3217;SDS011;1621;49.702;8.618;2022-10-16T13:46:30;4.77;;;2.63;;
3217;SDS011;1621;49.702;8.618;2022-10-16T13:48:59;5.93;;;3.30;;
3217;SDS011;1621;49.702;8.618;2022-10-16T13:51:27;4.37;;;2.50;;
3217;SDS011;1621;49.702;8.618;2022-10-16T13:53:54;5.00;;;2.53;;
3217;SDS011;1621;49.702;8.618;2022-10-16T13:56:22;4.33;;;2.40;;
3217;SDS011;1621;49.702;8.618;2022-10-16T13:58:58;4.33;;;2.10;;
3217;SDS011;1621;49.702;8.618;2022-10-16T14:01:24;6.20;;;2.70;;
3217;SDS011;1621;49.702;8.618;2022-10-16T14:03:59;4.73;;;2.40;;
3217;SDS011;1621;49.702;8.618;2022-10-16T14:06:26;6.83;;;3.00;;
3217;SDS011;1621;49.702;8.618;2022-10-16T14:08:55;4.47;;;2.37;;
3217;SDS011;1621;49.702;8.618;2022-10-16T14:11:24;6.50;;;2.30;;
3217;SDS011;1621;49.702;8.618;2022-10-16T14:13:51;5.43;;;2.40;;
3217;SDS011;1621;49.702;8.618;2022-10-16T14:16:18;4.90;;;2.20;;
3217;SDS011;1621;49.702;8.618;2022-10-16T14:18:46;5.30;;;2.30;;
3217;SDS011;1621;49.702;8.618;2022-10-16T14:21:14;5.93;;;2.33;;
3217;SDS011;1621;49.702;8.618;2022-10-16T14:23:42;5.30;;;2.70;;
3217;SDS011;1621;49.702;8.618;2022-10-16T14:26:12;7.30;;;3.03;;
3217;SDS011;1621;49.702;8.618;2022-10-16T14:28:40;5.70;;;2.40;;
3217;SDS011;1621;49.702;8.618;2022-10-16T14:31:19;5.67;;;2.80;;
3217;SDS011;1621;49.702;8.618;2022-10-16T14:33:49;6.30;;;2.70;;
3217;SDS011;1621;49.702;8.618;2022-10-16T14:36:16;5.40;;;2.47;;
3217;SDS011;1621;49.702;8.618;2022-10-16T14:38:47;5.77;;;2.60;;
3217;SDS011;1621;49.702;8.618;2022-10-16T14:41:15;6.43;;;3.00;;
3217;SDS011;1621;49.702;8.618;2022-10-16T14:43:43;8.23;;;2.93;;
3217;SDS011;1621;49.702;8.618;2022-10-16T14:46:11;6.57;;;2.87;;
3217;SDS011;1621;49.702;8.618;2022-10-16T14:48:39;5.90;;;2.50;;
3217;SDS011;1621;49.702;8.618;2022-10-16T14:51:08;6.83;;;3.60;;
3217;SDS011;1621;49.702;8.618;2022-10-16T14:53:34;4.33;;;2.67;;
3217;SDS011;1621;49.702;8.618;2022-10-16T14:56:05;5.80;;;2.50;;
3217;SDS011;1621;49.702;8.618;2022-10-16T14:58:31;3.50;;;2.30;;
3217;SDS011;1621;49.702;8.618;2022-10-16T15:00:59;6.47;;;2.70;;
3217;SDS011;1621;49.702;8.618;2022-10-16T15:03:25;8.50;;;2.60;;
3217;SDS011;1621;49.702;8.618;2022-10-16T15:05:52;8.20;;;2.70;;
3217;SDS011;1621;49.702;8.618;2022-10-16T15:08:18;7.43;;;2.63;;
3217;SDS011;1621;49.702;8.618;2022-10-16T15:10:44;4.40;;;2.23;;
3217;SDS011;1621;49.702;8.618;2022-10-16T15:13:11;4.80;;;2.30;;
3217;SDS011;1621;49.702;8.618;2022-10-16T15:15:39;5.70;;;2.33;;
3217;SDS011;1621;49.702;8.618;2022-10-16T15:18:08;4.10;;;2.70;;
3217;SDS011;1621;49.702;8.618;2022-10-16T15:20:36;4.60;;;2.50;;
3217;SDS011;1621;49.702;8.618;2022-10-16T15:23:02;4.00;;;2.10;;